createdAt,value
2022-07-28T00:02:30.365Z,7.35
2022-07-28T00:05:04.121Z,6.93
2022-07-28T00:07:38.209Z,7.00
2022-07-28T00:10:12.543Z,7.50
2022-07-28T00:12:46.323Z,7.45
2022-07-28T00:15:20.149Z,7.28
2022-07-28T00:17:55.756Z,7.03
2022-07-28T00:20:29.168Z,8.02
2022-07-28T00:23:02.870Z,7.43
2022-07-28T00:25:36.719Z,8.32
2022-07-28T00:28:10.583Z,7.72
2022-07-28T00:30:44.200Z,7.93
2022-07-28T00:33:19.827Z,8.77
2022-07-28T00:35:53.744Z,7.28
2022-07-28T00:38:31.144Z,6.32
2022-07-28T00:41:18.221Z,6.63
2022-07-28T00:43:54.322Z,7.45
2022-07-28T00:46:29.178Z,7.50
2022-07-28T00:49:05.290Z,7.65
2022-07-28T00:51:39.147Z,7.50
2022-07-28T00:54:14.153Z,7.63
2022-07-28T00:56:48.035Z,8.13
2022-07-28T00:59:21.463Z,7.35
2022-07-28T01:01:56.131Z,7.65
2022-07-28T01:04:48.864Z,7.35
2022-07-28T01:07:34.889Z,7.60
2022-07-28T01:10:14.328Z,7.22
2022-07-28T01:13:02.934Z,7.25
2022-07-28T01:15:39.163Z,6.60
2022-07-28T01:18:19.550Z,7.50
2022-07-28T01:20:57.479Z,7.68
2022-07-28T01:24:04.260Z,7.40
2022-07-28T01:26:52.276Z,7.78
2022-07-28T01:30:05.131Z,8.55
2022-07-28T01:32:45.271Z,7.50
2022-07-28T01:35:37.423Z,7.53
2022-07-28T01:38:22.823Z,6.70
2022-07-28T01:40:59.596Z,7.38
2022-07-28T01:43:37.819Z,6.13
2022-07-28T01:46:13.320Z,6.78
2022-07-28T01:48:51.340Z,6.50
2022-07-28T01:51:27.875Z,7.10
2022-07-28T01:54:26.241Z,6.85
2022-07-28T01:57:02.936Z,6.60
2022-07-28T01:59:37.974Z,6.57
2022-07-28T02:02:12.702Z,6.28
2022-07-28T02:07:39.417Z,6.68
2022-07-28T02:10:16.037Z,6.88
2022-07-28T02:12:51.162Z,7.05
2022-07-28T02:15:27.076Z,6.68
2022-07-28T02:18:03.277Z,8.00
2022-07-28T02:20:40.798Z,6.90
2022-07-28T02:23:18.994Z,7.78
2022-07-28T02:26:14.366Z,10.02
2022-07-28T02:28:59.250Z,8.88
2022-07-28T02:31:37.173Z,8.38
2022-07-28T02:34:17.834Z,7.38
2022-07-28T02:37:01.783Z,6.72
2022-07-28T02:39:41.043Z,6.35
2022-07-28T02:42:18.622Z,7.03
2022-07-28T02:44:59.946Z,6.65
2022-07-28T02:47:40.906Z,6.90
2022-07-28T02:50:18.708Z,8.35
2022-07-28T02:52:55.836Z,7.32
2022-07-28T02:55:31.031Z,7.90
2022-07-28T02:58:09.857Z,7.90
2022-07-28T03:00:45.020Z,7.40
2022-07-28T03:03:21.088Z,8.30
2022-07-28T03:05:56.173Z,8.68
2022-07-28T03:08:32.318Z,7.90
2022-07-28T03:11:13.943Z,7.22
2022-07-28T03:14:03.337Z,7.80
2022-07-28T03:16:37.408Z,8.02
2022-07-28T03:19:11.796Z,7.60
2022-07-28T03:21:46.281Z,8.00
2022-07-28T03:24:24.101Z,8.10
2022-07-28T03:27:04.384Z,7.88
2022-07-28T03:29:39.314Z,8.90
2022-07-28T03:35:03.930Z,8.73
2022-07-28T03:37:41.507Z,8.10
2022-07-28T03:40:19.489Z,8.52
2022-07-28T03:42:55.068Z,8.70
2022-07-28T03:45:30.561Z,8.20
2022-07-28T03:48:04.354Z,8.68
2022-07-28T03:50:38.877Z,9.55
2022-07-28T03:53:19.709Z,8.30
2022-07-28T03:55:56.206Z,8.90
2022-07-28T03:58:31.614Z,9.23
2022-07-28T04:01:05.112Z,8.40
2022-07-28T04:03:43.849Z,9.82
2022-07-28T04:06:17.845Z,8.65
2022-07-28T04:08:52.012Z,8.65
2022-07-28T04:11:29.011Z,9.50
2022-07-28T04:14:03.641Z,8.93
2022-07-28T04:16:37.554Z,8.20
2022-07-28T04:19:12.163Z,8.70
2022-07-28T04:21:46.061Z,8.85
2022-07-28T04:24:20.922Z,8.35
2022-07-28T04:27:30.240Z,8.85
2022-07-28T04:30:04.185Z,9.15
2022-07-28T04:32:37.647Z,10.25
2022-07-28T04:35:17.150Z,9.90
2022-07-28T04:37:52.423Z,9.88
2022-07-28T04:40:26.971Z,9.98
2022-07-28T04:43:02.695Z,10.98
2022-07-28T04:45:54.126Z,12.10
2022-07-28T04:48:29.178Z,10.60
2022-07-28T04:51:04.472Z,9.93
2022-07-28T04:53:39.467Z,10.40
2022-07-28T04:56:14.930Z,10.07
2022-07-28T04:58:51.828Z,10.40
2022-07-28T05:01:49.175Z,11.10
2022-07-28T05:04:23.622Z,10.90
2022-07-28T05:06:57.580Z,10.57
2022-07-28T05:09:31.496Z,10.13
2022-07-28T05:12:07.247Z,9.65
2022-07-28T05:14:43.161Z,10.50
2022-07-28T05:17:17.700Z,10.13
2022-07-28T05:19:51.340Z,10.93
2022-07-28T05:22:25.248Z,11.52
2022-07-28T05:24:59.132Z,9.75
2022-07-28T05:27:33.797Z,9.02
2022-07-28T05:30:11.680Z,10.10
2022-07-28T05:32:46.518Z,10.60
2022-07-28T05:35:20.889Z,10.73
2022-07-28T05:37:54.820Z,9.65
2022-07-28T05:40:29.449Z,10.32
2022-07-28T05:43:03.904Z,9.70
2022-07-28T05:45:39.433Z,9.57
2022-07-28T05:48:14.530Z,9.32
2022-07-28T05:50:52.701Z,8.82
2022-07-28T05:53:28.231Z,10.38
2022-07-28T05:56:02.015Z,10.20
2022-07-28T05:58:36.299Z,10.05
2022-07-28T06:01:11.808Z,9.95
2022-07-28T06:03:54.128Z,9.70
2022-07-28T06:06:38.418Z,9.57
2022-07-28T06:09:16.477Z,9.70
2022-07-28T06:11:51.898Z,9.43
2022-07-28T06:14:26.216Z,9.75
2022-07-28T06:17:01.773Z,9.65
2022-07-28T06:19:37.594Z,9.02
2022-07-28T06:22:11.662Z,9.43
2022-07-28T06:24:49.777Z,9.48
2022-07-28T06:27:26.699Z,8.73
2022-07-28T06:30:04.754Z,7.88
2022-07-28T06:32:40.151Z,8.65
2022-07-28T06:35:16.083Z,8.07
2022-07-28T06:37:50.295Z,8.32
2022-07-28T06:40:28.707Z,8.80
2022-07-28T06:43:03.597Z,9.07
2022-07-28T06:45:38.234Z,8.57
2022-07-28T06:48:15.071Z,8.98
2022-07-28T06:50:49.274Z,8.77
2022-07-28T06:53:23.366Z,8.43
2022-07-28T06:55:57.094Z,8.80
2022-07-28T06:58:31.115Z,8.40
2022-07-28T07:01:09.087Z,8.75
2022-07-28T07:03:45.224Z,7.65
2022-07-28T07:06:20.301Z,8.13
2022-07-28T07:08:54.157Z,7.63
2022-07-28T07:11:28.537Z,8.20
2022-07-28T07:14:02.797Z,7.63
2022-07-28T07:16:37.098Z,7.68
2022-07-28T07:19:15.879Z,7.90
2022-07-28T07:21:57.261Z,7.97
2022-07-28T07:24:33.372Z,7.70
2022-07-28T07:29:57.867Z,7.13
2022-07-28T07:32:38.743Z,6.60
2022-07-28T07:35:15.696Z,6.55
2022-07-28T07:37:49.862Z,6.25
2022-07-28T07:40:23.906Z,5.72
2022-07-28T07:43:00.230Z,5.50
2022-07-28T07:45:35.974Z,6.28
2022-07-28T07:48:10.184Z,6.00
2022-07-28T07:50:49.350Z,5.88
2022-07-28T07:53:26.298Z,5.40
2022-07-28T07:56:15.663Z,5.88
2022-07-28T07:58:55.080Z,5.18
2022-07-28T08:01:30.991Z,5.22
2022-07-28T08:04:05.151Z,5.22
2022-07-28T08:06:49.616Z,7.28
2022-07-28T08:09:24.148Z,5.90
2022-07-28T08:11:58.586Z,5.70
2022-07-28T08:14:36.074Z,5.18
2022-07-28T08:17:11.075Z,5.28
2022-07-28T08:19:44.895Z,5.50
2022-07-28T08:22:30.875Z,5.32
2022-07-28T08:25:06.218Z,5.35
2022-07-28T08:27:39.588Z,5.07
2022-07-28T08:30:17.035Z,5.50
2022-07-28T08:32:58.455Z,5.93
2022-07-28T08:36:04.629Z,5.22
2022-07-28T08:38:40.544Z,5.00
2022-07-28T08:41:24.322Z,5.20
2022-07-28T08:43:59.751Z,5.18
2022-07-28T08:46:36.805Z,5.40
2022-07-28T08:49:12.618Z,5.53
2022-07-28T08:51:51.575Z,5.85
2022-07-28T08:54:33.750Z,6.30
2022-07-28T08:57:08.568Z,5.57
2022-07-28T08:59:43.298Z,5.72
2022-07-28T09:02:17.536Z,5.75
2022-07-28T09:04:54.631Z,5.97
2022-07-28T09:07:31.314Z,5.82
2022-07-28T09:10:07.233Z,5.57
2022-07-28T09:12:41.220Z,5.38
2022-07-28T09:15:16.234Z,5.32
2022-07-28T09:17:49.872Z,5.40
2022-07-28T09:20:24.271Z,5.57
2022-07-28T09:23:02.884Z,5.70
2022-07-28T09:25:38.448Z,6.10
2022-07-28T09:28:13.211Z,6.10
2022-07-28T09:31:11.517Z,5.72
2022-07-28T09:33:56.458Z,5.90
2022-07-28T09:36:30.532Z,5.43
2022-07-28T09:39:04.900Z,5.53
2022-07-28T09:41:58.477Z,5.57
2022-07-28T09:44:32.348Z,5.97
2022-07-28T09:47:25.142Z,5.75
2022-07-28T09:50:01.024Z,5.88
2022-07-28T09:52:36.160Z,5.80
2022-07-28T09:55:12.018Z,5.97
2022-07-28T09:57:56.355Z,6.00
2022-07-28T10:00:33.771Z,7.15
2022-07-28T10:03:09.437Z,6.10
2022-07-28T10:05:52.075Z,6.25
2022-07-28T10:11:31.877Z,6.50
2022-07-28T10:14:09.134Z,6.32
2022-07-28T10:16:53.834Z,6.75
2022-07-28T10:19:27.644Z,7.75
2022-07-28T10:22:04.043Z,9.07
2022-07-28T10:24:43.730Z,9.35
2022-07-28T10:27:18.005Z,10.80
2022-07-28T10:30:00.063Z,9.93
2022-07-28T10:32:37.071Z,9.02
2022-07-28T10:35:13.963Z,9.38
2022-07-28T10:38:02.919Z,9.25
2022-07-28T10:40:39.800Z,9.45
2022-07-28T10:43:16.290Z,10.63
2022-07-28T10:46:05.747Z,10.85
2022-07-28T10:48:43.822Z,9.63
2022-07-28T10:51:22.452Z,10.57
2022-07-28T10:54:10.767Z,9.98
2022-07-28T10:56:57.205Z,9.15
2022-07-28T10:59:58.184Z,9.73
2022-07-28T11:03:00.500Z,9.60
2022-07-28T11:05:40.302Z,9.82
2022-07-28T11:08:30.961Z,11.55
2022-07-28T11:11:09.111Z,10.63
2022-07-28T11:13:43.470Z,11.30
2022-07-28T11:16:27.105Z,11.10
2022-07-28T11:19:40.271Z,10.88
2022-07-28T11:22:34.881Z,10.35
2022-07-28T11:25:22.268Z,11.48
2022-07-28T11:28:08.897Z,10.40
2022-07-28T11:30:59.623Z,10.13
2022-07-28T11:34:08.643Z,10.15
2022-07-28T11:37:23.482Z,10.00
2022-07-28T11:39:56.878Z,10.45
2022-07-28T11:42:33.274Z,10.02
2022-07-28T11:45:38.362Z,10.60
2022-07-28T11:48:27.915Z,10.77
2022-07-28T11:51:15.560Z,10.02
2022-07-28T11:53:53.201Z,10.15
2022-07-28T11:56:30.698Z,10.35
2022-07-28T11:59:05.311Z,9.80
2022-07-28T12:01:39.767Z,10.73
2022-07-28T12:04:17.256Z,9.90
2022-07-28T12:06:55.505Z,9.70
2022-07-28T12:09:42.546Z,9.55
2022-07-28T12:12:17.785Z,9.88
2022-07-28T12:14:52.179Z,9.63
2022-07-28T12:17:27.026Z,10.25
2022-07-28T12:20:05.564Z,10.15
2022-07-28T12:22:46.296Z,10.70
2022-07-28T12:25:23.286Z,10.95
2022-07-28T12:27:56.703Z,10.98
2022-07-28T12:30:31.685Z,10.18
2022-07-28T12:33:26.082Z,10.25
2022-07-28T12:36:04.560Z,9.85
2022-07-28T12:38:43.936Z,10.27
2022-07-28T12:41:21.756Z,9.60
2022-07-28T12:43:56.999Z,9.88
2022-07-28T12:46:32.010Z,9.77
2022-07-28T12:49:06.180Z,10.02
2022-07-28T12:51:44.452Z,8.95
2022-07-28T12:54:21.505Z,8.95
2022-07-28T12:56:58.033Z,9.25
2022-07-28T12:59:37.088Z,8.98
2022-07-28T13:02:11.449Z,9.57
2022-07-28T13:04:50.119Z,9.45
2022-07-28T13:07:31.887Z,10.57
2022-07-28T13:10:12.393Z,10.75
2022-07-28T13:12:52.654Z,10.40
2022-07-28T13:15:32.548Z,10.95
2022-07-28T13:18:13.524Z,10.80
2022-07-28T13:20:55.552Z,11.43
2022-07-28T13:23:29.924Z,10.32
2022-07-28T13:26:04.452Z,10.20
2022-07-28T13:28:41.021Z,11.02
2022-07-28T13:31:15.036Z,10.50
2022-07-28T13:33:53.653Z,10.85
2022-07-28T13:36:31.308Z,9.75
2022-07-28T13:39:08.515Z,10.27
2022-07-28T13:41:57.941Z,10.63
2022-07-28T13:44:35.470Z,10.50
2022-07-28T13:47:09.742Z,12.13
2022-07-28T13:49:43.840Z,11.07
2022-07-28T13:52:32.692Z,11.13
2022-07-28T13:55:09.496Z,10.70
2022-07-28T13:57:49.119Z,10.80
2022-07-28T14:00:25.234Z,11.13
2022-07-28T14:02:59.417Z,10.88
2022-07-28T14:05:34.694Z,11.00
2022-07-28T14:08:09.907Z,12.23
2022-07-28T14:10:48.367Z,10.90
2022-07-28T14:13:23.359Z,11.45
2022-07-28T14:16:14.121Z,11.45
2022-07-28T14:18:48.524Z,11.07
2022-07-28T14:21:24.151Z,11.07
2022-07-28T14:23:58.552Z,10.93
2022-07-28T14:26:35.778Z,11.73
2022-07-28T14:29:11.343Z,11.95
2022-07-28T14:31:48.232Z,11.30
2022-07-28T14:34:22.343Z,12.10
2022-07-28T14:37:21.262Z,11.65
2022-07-28T14:39:56.098Z,11.43
2022-07-28T14:42:33.020Z,11.82
2022-07-28T14:45:08.835Z,11.85
2022-07-28T14:47:46.152Z,11.55
2022-07-28T14:50:22.293Z,11.18
2022-07-28T14:52:57.343Z,11.65
2022-07-28T14:55:32.068Z,11.68
2022-07-28T14:58:09.598Z,11.38
2022-07-28T15:00:48.770Z,11.85
2022-07-28T15:03:36.056Z,12.40
2022-07-28T15:06:23.673Z,13.48
2022-07-28T15:08:58.571Z,13.18
2022-07-28T15:11:32.492Z,14.48
2022-07-28T15:14:07.038Z,15.30
2022-07-28T15:16:42.070Z,15.65
2022-07-28T15:19:17.570Z,15.93
2022-07-28T15:21:57.430Z,15.45
2022-07-28T15:24:36.396Z,16.13
2022-07-28T15:27:12.793Z,15.95
2022-07-28T15:29:52.416Z,17.20
2022-07-28T15:32:28.095Z,17.75
2022-07-28T15:35:05.611Z,17.02
2022-07-28T15:37:40.246Z,17.63
2022-07-28T15:40:15.201Z,17.38
2022-07-28T15:43:04.366Z,18.88
2022-07-28T15:45:38.141Z,18.67
2022-07-28T15:48:12.506Z,18.33
2022-07-28T15:50:58.781Z,20.10
2022-07-28T15:56:22.167Z,19.20
2022-07-28T15:58:56.661Z,19.20
2022-07-28T16:01:31.305Z,20.20
2022-07-28T16:04:10.313Z,20.77
2022-07-28T16:07:02.608Z,18.42
2022-07-28T16:09:46.102Z,19.87
2022-07-28T16:12:24.096Z,19.50
2022-07-28T16:14:57.912Z,19.40
2022-07-28T16:17:31.722Z,19.70
2022-07-28T16:20:10.311Z,19.37
2022-07-28T16:22:47.194Z,19.95
2022-07-28T16:25:34.054Z,19.37
2022-07-28T16:28:11.325Z,18.40
2022-07-28T16:30:48.070Z,18.83
2022-07-28T16:33:33.535Z,18.90
2022-07-28T16:36:12.005Z,19.77
2022-07-28T16:38:49.747Z,19.37
2022-07-28T16:41:24.139Z,19.38
2022-07-28T16:44:21.160Z,20.15
2022-07-28T16:46:55.755Z,21.20
2022-07-28T16:49:29.770Z,20.20
2022-07-28T16:52:04.163Z,20.40
2022-07-28T16:54:41.062Z,21.03
2022-07-28T16:57:18.467Z,21.67
2022-07-28T16:59:52.285Z,19.20
2022-07-28T17:02:25.616Z,17.63
2022-07-28T17:04:59.998Z,17.03
2022-07-28T17:07:33.937Z,19.33
2022-07-28T17:10:10.257Z,17.47
2022-07-28T17:12:49.620Z,16.57
2022-07-28T17:15:24.326Z,17.80
2022-07-28T17:17:59.218Z,17.07
2022-07-28T17:20:33.849Z,15.80
2022-07-28T17:23:09.228Z,17.10
2022-07-28T17:26:20.480Z,15.87
2022-07-28T17:28:39.283Z,16.60
2022-07-28T17:31:13.618Z,16.67
2022-07-28T17:33:47.640Z,15.23
2022-07-28T17:36:21.083Z,16.20
2022-07-28T17:38:55.096Z,15.97
2022-07-28T17:41:31.164Z,15.80
2022-07-28T17:44:05.194Z,16.27
2022-07-28T17:46:39.446Z,15.87
2022-07-28T17:49:13.338Z,16.13
2022-07-28T17:51:46.990Z,16.50
2022-07-28T17:54:50.839Z,15.93
2022-07-28T17:57:25.703Z,16.93
2022-07-28T17:59:59.791Z,16.73
2022-07-28T18:02:34.069Z,15.77
2022-07-28T18:05:10.096Z,16.03
2022-07-28T18:07:49.603Z,15.67
2022-07-28T18:10:27.132Z,15.23
2022-07-28T18:13:05.900Z,14.67
2022-07-28T18:15:40.928Z,16.50
2022-07-28T18:18:15.048Z,14.60
2022-07-28T18:20:49.159Z,13.47
2022-07-28T18:23:23.006Z,13.63
2022-07-28T18:25:57.209Z,12.87
2022-07-28T18:28:32.845Z,12.40
2022-07-28T18:33:53.080Z,11.97
2022-07-28T18:36:26.815Z,13.20
2022-07-28T18:39:00.442Z,12.97
2022-07-28T18:41:34.544Z,11.77
2022-07-28T18:44:23.675Z,10.60
2022-07-28T18:46:58.580Z,9.67
2022-07-28T18:49:37.738Z,9.83
2022-07-28T18:52:12.564Z,10.20
2022-07-28T18:54:46.283Z,9.57
2022-07-28T18:57:20.401Z,8.97
2022-07-28T18:59:56.223Z,9.30
2022-07-28T19:02:30.227Z,9.97
2022-07-28T19:05:03.535Z,9.80
2022-07-28T19:07:37.298Z,9.63
2022-07-28T19:10:11.486Z,10.20
2022-07-28T19:12:44.628Z,10.40
2022-07-28T19:15:21.246Z,10.77
2022-07-28T19:18:10.255Z,10.70
2022-07-28T19:20:45.106Z,10.27
2022-07-28T19:23:20.311Z,10.00
2022-07-28T19:25:55.691Z,9.80
2022-07-28T19:28:29.807Z,10.33
2022-07-28T19:31:10.729Z,9.83
2022-07-28T19:33:45.230Z,10.13
2022-07-28T19:36:18.048Z,10.73
2022-07-28T19:38:51.704Z,10.13
2022-07-28T19:41:25.734Z,10.33
2022-07-28T19:43:59.592Z,10.63
2022-07-28T19:46:35.724Z,12.07
2022-07-28T19:49:13.461Z,11.60
2022-07-28T19:51:46.804Z,10.27
2022-07-28T19:54:22.914Z,9.27
2022-07-28T19:56:57.177Z,10.20
2022-07-28T19:59:30.923Z,9.40
2022-07-28T20:02:08.217Z,9.13
2022-07-28T20:04:41.459Z,9.33
2022-07-28T20:07:15.301Z,9.00
2022-07-28T20:09:48.725Z,8.53
2022-07-28T20:12:24.377Z,8.20
2022-07-28T20:14:58.372Z,8.07
2022-07-28T20:17:38.913Z,8.30
2022-07-28T20:20:18.195Z,7.87
2022-07-28T20:22:52.054Z,8.30
2022-07-28T20:25:25.528Z,7.70
2022-07-28T20:27:58.798Z,8.10
2022-07-28T20:30:32.472Z,8.60
2022-07-28T20:33:09.397Z,8.93
2022-07-28T20:35:42.321Z,7.70
2022-07-28T20:38:16.183Z,8.00
2022-07-28T20:40:50.146Z,8.10
2022-07-28T20:43:23.875Z,8.20
2022-07-28T20:46:12.989Z,8.60
2022-07-28T20:48:48.708Z,8.33
2022-07-28T20:51:22.996Z,8.87
2022-07-28T20:53:56.301Z,10.30
2022-07-28T20:56:30.209Z,10.50
2022-07-28T20:59:06.751Z,9.63
2022-07-28T21:01:42.309Z,9.87
2022-07-28T21:04:19.562Z,10.77
2022-07-28T21:07:02.312Z,10.40
2022-07-28T21:09:37.521Z,10.23
2022-07-28T21:12:12.212Z,10.20
2022-07-28T21:14:46.405Z,12.90
2022-07-28T21:17:19.813Z,11.40
2022-07-28T21:19:54.665Z,10.80
2022-07-28T21:22:29.466Z,10.67
2022-07-28T21:25:02.913Z,10.93
2022-07-28T21:27:49.594Z,12.07
2022-07-28T21:30:28.344Z,12.07
2022-07-28T21:33:02.736Z,12.27
2022-07-28T21:35:38.464Z,11.90
2022-07-28T21:38:12.226Z,14.37
2022-07-28T21:40:46.078Z,14.03
2022-07-28T21:43:19.867Z,12.47
2022-07-28T21:45:53.569Z,13.10
2022-07-28T21:48:27.682Z,12.73
2022-07-28T21:51:03.500Z,12.97
2022-07-28T21:53:52.784Z,14.87
2022-07-28T21:56:28.705Z,13.73
2022-07-28T21:59:04.917Z,15.00
2022-07-28T22:01:38.768Z,14.63
2022-07-28T22:04:12.209Z,15.63
2022-07-28T22:06:47.446Z,15.03
2022-07-28T22:09:20.513Z,16.97
2022-07-28T22:11:54.608Z,19.13
2022-07-28T22:14:33.750Z,17.27
2022-07-28T22:17:07.610Z,16.80
2022-07-28T22:19:43.390Z,18.20
2022-07-28T22:22:19.821Z,16.17
2022-07-28T22:24:56.605Z,17.13
2022-07-28T22:27:30.367Z,18.37
2022-07-28T22:30:04.423Z,20.10
2022-07-28T22:32:40.075Z,19.90
2022-07-28T22:35:14.225Z,18.67
2022-07-28T22:37:53.293Z,20.07
2022-07-28T22:40:27.233Z,19.73
2022-07-28T22:43:00.328Z,19.63
2022-07-28T22:45:50.487Z,19.50
2022-07-28T22:54:04.438Z,18.83
2022-07-28T22:56:38.287Z,19.07
2022-07-28T22:59:14.550Z,19.73
2022-07-28T23:01:52.227Z,19.73
2022-07-28T23:04:26.920Z,19.80
2022-07-28T23:07:02.654Z,20.17
2022-07-28T23:09:38.781Z,20.93
2022-07-28T23:12:14.246Z,20.63
2022-07-28T23:14:48.724Z,20.27
2022-07-28T23:17:23.208Z,19.00
2022-07-28T23:20:00.413Z,20.27
2022-07-28T23:22:45.091Z,19.48
2022-07-28T23:25:22.559Z,19.45
2022-07-28T23:27:56.915Z,18.10
2022-07-28T23:30:31.239Z,19.45
2022-07-28T23:33:05.480Z,17.73
2022-07-28T23:35:40.010Z,17.10
2022-07-28T23:38:14.484Z,17.35
2022-07-28T23:40:50.959Z,17.52
2022-07-28T23:43:25.618Z,16.95
2022-07-28T23:45:59.924Z,16.13
2022-07-28T23:48:34.221Z,17.50
2022-07-28T23:51:09.198Z,16.25
2022-07-28T23:53:45.386Z,15.95
2022-07-28T23:56:22.173Z,16.27
2022-07-28T23:58:56.844Z,15.98
